Time;durP1;ratioP1;P1;durP2;ratioP2;P2;SDS_P1;SDS_P2;PMS_P1;PMS_P2;Temp;Humidity;BMP_temperature;BMP_pressure;BME280_temperature;BME280_humidity;BME280_pressure;Samples;Min_cycle;Max_cycle;Signal;HPM_P1;HPM_P2
2022/04/20 00:00:11;;;;;;;;;;;;;;;;;;5055559;28;19920;-51
2022/04/20 00:02:36;;;;;;;;;;;;;;;;;;5055736;28;19909;-52
2022/04/20 00:05:01;;;;;;;;;;;;;;;;;;5055774;28;20369;-52
2022/04/20 00:07:26;;;;;;;;;;;;;;;;;;5055287;28;19908;-53
2022/04/20 00:09:52;;;;;;;;;;;;;;;;;;5055820;28;19909;-52
2022/04/20 00:12:17;;;;;;;;;;;;;;;;;;5054935;28;20334;-50
2022/04/20 00:14:42;;;;;;;;;;;;;;;;;;5055414;28;20358;-52
2022/04/20 00:17:07;;;;;;;;;;;;;;;;;;5055396;28;19987;-53
2022/04/20 00:19:33;;;;;;;;;;;;;;;;;;5041961;28;19912;-50
2022/04/20 00:21:58;;;;;;;;;;;;;;;;;;5035965;28;19913;-52
2022/04/20 00:24:23;;;;;;;;;;;;;;;;;;5035199;28;19921;-51
2022/04/20 00:26:48;;;;;;;;;;;;;;;;;;5035328;28;20396;-50
2022/04/20 00:29:14;;;;;;;;;;;;;;;;;;5027880;28;19916;-52
2022/04/20 00:31:39;;;;;;;;;;;;;;;;;;5015247;28;19909;-52
2022/04/20 00:34:05;;;;;;;;;;;;;;;;;;5015682;28;19909;-51
2022/04/20 00:36:30;;;;;;;;;;;;;;;;;;5013725;28;19910;-51
2022/04/20 00:38:55;;;;;;;;;;;;;;;;;;5014223;28;19916;-50
2022/04/20 00:41:20;;;;;;;;;;;;;;;;;;5014041;28;19909;-54
2022/04/20 00:43:46;;;;;;;;;;;;;;;;;;5014874;28;20313;-52
2022/04/20 00:46:11;;;;;;;;;;;;;;;;;;5013890;28;20338;-53
2022/04/20 00:48:38;;;;;;;;;;;;;;;;;;5027304;28;20250;-50
2022/04/20 00:51:03;;;;;;;;;;;;;;;;;;5033836;28;19963;-53
2022/04/20 00:53:28;;;;;;;;;;;;;;;;;;5033478;28;19944;-49
2022/04/20 00:55:54;;;;;;;;;;;;;;;;;;5033471;28;19909;-53
2022/04/20 00:58:20;;;;;;;;;;;;;;;;;;5033747;28;19909;-49
2022/04/20 01:00:45;;;;;;;;;;;;;;;;;;5033423;28;20174;-52
2022/04/20 01:03:10;;;;;;;;;;;;;;;;;;5033398;28;19955;-48
2022/04/20 01:05:54;;;;;;;;;;;;;;;;;;5035052;28;19923;-52
2022/04/20 01:08:34;;;;;;;;;;;;;;;;;;5033863;28;19909;-53
2022/04/20 01:11:18;;;;;;;;;;;;;;;;;;5034937;28;19951;-53
2022/04/20 01:14:10;;;;;;;;;;;;;;;;;;5033041;28;20102;-51
2022/04/20 01:16:58;;;;;;;;;;;;;;;;;;5031161;28;19948;-53
2022/04/20 01:19:41;;;;;;;;;;;;;;;;;;5034051;28;19995;-50
2022/04/20 01:22:22;;;;;;;;;;;;;;;;;;5033944;28;20286;-53
2022/04/20 01:24:57;;;;;;;;;;;;;;;;;;5027864;28;19918;-51
2022/04/20 01:27:26;;;;;;;;;;;;;;;;;;5030057;28;20155;-52
2022/04/20 01:30:13;;;;;;;;;;;;;;;;;;5012214;28;19912;-56
2022/04/20 01:33:00;;;;;;;;;;;;;;;;;;5034398;28;19909;-53
2022/04/20 01:35:38;;;;;;;;;;;;;;;;;;5033462;28;20007;-49
2022/04/20 01:38:04;;;;;;;;;;;;;;;;;;5033413;28;19956;-53
2022/04/20 01:40:29;;;;;;;;;;;;;;;;;;5033378;28;19951;-54
2022/04/20 01:42:54;;;;;;;;;;;;;;;;;;5033734;28;19909;-52
2022/04/20 01:45:19;;;;;;;;;;;;;;;;;;5028354;28;20346;-52
2022/04/20 01:48:03;;;;;;;;;;;;;;;;;;5013913;28;20423;-52
2022/04/20 01:53:48;;;;;;;;;;;;;;;;;;5013999;28;20051;-56
2022/04/20 01:56:34;;;;;;;;;;;;;;;;;;5007170;28;19910;-53
2022/04/20 01:59:19;;;;;;;;;;;;;;;;;;5036921;28;19996;-52
2022/04/20 02:04:47;;;;;;;;;;;;;;;;;;5046146;28;19921;-51
2022/04/20 02:07:13;;;;;;;;;;;;;;;;;;5012884;28;19992;-53
2022/04/20 02:09:43;;;;;;;;;;;;;;;;;;5013104;28;20343;-53
2022/04/20 02:12:13;;;;;;;;;;;;;;;;;;5012786;28;19917;-50
2022/04/20 02:14:55;;;;;;;;;;;;;;;;;;5012855;28;19909;-53
2022/04/20 02:17:59;;;;;;;;;;;;;;;;;;5028461;28;19910;-52
2022/04/20 02:20:47;;;;;;;;;;;;;;;;;;5014059;28;19917;-50
2022/04/20 02:23:12;;;;;;;;;;;;;;;;;;5012441;28;19916;-52
2022/04/20 02:25:37;;;;;;;;;;;;;;;;;;5012616;28;19917;-49
2022/04/20 02:28:02;;;;;;;;;;;;;;;;;;5029088;28;19909;-50
2022/04/20 02:30:27;;;;;;;;;;;;;;;;;;5029305;28;19949;-53
2022/04/20 02:32:54;;;;;;;;;;;;;;;;;;5033219;28;19909;-50
2022/04/20 02:35:20;;;;;;;;;;;;;;;;;;5032237;28;19931;-51
2022/04/20 02:37:46;;;;;;;;;;;;;;;;;;5032796;28;20317;-50
2022/04/20 02:40:11;;;;;;;;;;;;;;;;;;5033230;28;19991;-49
2022/04/20 02:42:36;;;;;;;;;;;;;;;;;;5029838;28;21045;-52
2022/04/20 02:45:01;;;;;;;;;;;;;;;;;;5033437;28;20357;-49
2022/04/20 02:47:26;;;;;;;;;;;;;;;;;;5032155;28;20265;-50
2022/04/20 02:49:52;;;;;;;;;;;;;;;;;;5030521;28;19964;-51
2022/04/20 02:52:17;;;;;;;;;;;;;;;;;;5046148;28;19913;-50
2022/04/20 02:54:42;;;;;;;;;;;;;;;;;;5029686;28;19909;-51
2022/04/20 02:57:08;;;;;;;;;;;;;;;;;;5029064;28;20008;-50
2022/04/20 02:59:33;;;;;;;;;;;;;;;;;;5048046;28;19913;-52
2022/04/20 03:02:01;;;;;;;;;;;;;;;;;;5049916;28;19909;-49
2022/04/20 03:04:26;;;;;;;;;;;;;;;;;;5048899;28;19929;-52
2022/04/20 03:06:51;;;;;;;;;;;;;;;;;;5049042;28;19910;-50
2022/04/20 03:09:28;;;;;;;;;;;;;;;;;;5049684;28;19909;-49
2022/04/20 03:11:53;;;;;;;;;;;;;;;;;;5016714;28;19964;-50
2022/04/20 03:14:18;;;;;;;;;;;;;;;;;;5017215;28;20001;-50
2022/04/20 03:16:44;;;;;;;;;;;;;;;;;;5048763;28;20004;-53
2022/04/20 03:19:12;;;;;;;;;;;;;;;;;;5046175;28;19917;-49
2022/04/20 03:21:37;;;;;;;;;;;;;;;;;;5038950;28;19913;-49
2022/04/20 03:24:02;;;;;;;;;;;;;;;;;;5037016;28;20273;-51
2022/04/20 03:26:54;;;;;;;;;;;;;;;;;;5036180;28;19909;-49
2022/04/20 03:29:25;;;;;;;;;;;;;;;;;;5034193;28;20004;-50
2022/04/20 03:31:51;;;;;;;;;;;;;;;;;;5034116;28;20008;-51
2022/04/20 03:34:16;;;;;;;;;;;;;;;;;;5036005;28;19986;-50
2022/04/20 03:36:41;;;;;;;;;;;;;;;;;;5033353;28;19909;-53
2022/04/20 03:39:06;;;;;;;;;;;;;;;;;;5036342;28;20350;-53
2022/04/20 03:41:32;;;;;;;;;;;;;;;;;;5034734;28;19909;-51
2022/04/20 03:43:57;;;;;;;;;;;;;;;;;;5035059;28;19992;-52
2022/04/20 03:46:23;;;;;;;;;;;;;;;;;;5036462;28;19909;-54
2022/04/20 03:48:48;;;;;;;;;;;;;;;;;;5036184;28;19912;-51
2022/04/20 03:51:13;;;;;;;;;;;;;;;;;;5036360;28;20261;-52
2022/04/20 03:53:39;;;;;;;;;;;;;;;;;;5035613;28;19909;-51
2022/04/20 03:56:05;;;;;;;;;;;;;;;;;;5034728;28;19995;-53
2022/04/20 03:58:30;;;;;;;;;;;;;;;;;;5035260;28;20362;-54
2022/04/20 04:00:55;;;;;;;;;;;;;;;;;;5034571;28;20269;-50
2022/04/20 04:03:21;;;;;;;;;;;;;;;;;;5035440;28;20312;-51
2022/04/20 04:05:47;;;;;;;;;;;;;;;;;;5035713;28;19917;-49
2022/04/20 04:08:22;;;;;;;;;;;;;;;;;;5034920;28;19916;-51
2022/04/20 04:10:49;;;;;;;;;;;;;;;;;;5034111;28;19913;-49
2022/04/20 04:13:15;;;;;;;;;;;;;;;;;;5034479;28;20031;-51
2022/04/20 04:15:45;;;;;;;;;;;;;;;;;;5034995;28;19909;-50
2022/04/20 04:18:12;;;;;;;;;;;;;;;;;;5034249;28;19963;-48
2022/04/20 04:20:43;;;;;;;;;;;;;;;;;;5034151;28;20354;-51
2022/04/20 04:23:10;;;;;;;;;;;;;;;;;;5034228;28;19935;-50
2022/04/20 04:25:57;;;;;;;;;;;;;;;;;;5034331;28;20388;-53
2022/04/20 04:28:33;;;;;;;;;;;;;;;;;;5034532;28;19972;-50
2022/04/20 04:30:58;;;;;;;;;;;;;;;;;;5033888;28;19909;-48
2022/04/20 04:33:23;;;;;;;;;;;;;;;;;;5034781;28;19909;-52
2022/04/20 04:35:48;;;;;;;;;;;;;;;;;;5033857;28;19910;-52
2022/04/20 04:38:15;;;;;;;;;;;;;;;;;;5034611;28;19909;-50
2022/04/20 04:40:41;;;;;;;;;;;;;;;;;;5034547;28;19909;-49
2022/04/20 04:43:06;;;;;;;;;;;;;;;;;;5034141;28;20027;-53
2022/04/20 04:48:36;;;;;;;;;;;;;;;;;;5048519;28;19971;-50
2022/04/20 04:51:03;;;;;;;;;;;;;;;;;;5034287;28;19963;-49
2022/04/20 04:53:29;;;;;;;;;;;;;;;;;;5033458;28;19909;-53
2022/04/20 04:55:55;;;;;;;;;;;;;;;;;;5033098;28;19909;-52
2022/04/20 04:58:20;;;;;;;;;;;;;;;;;;5034118;28;19909;-51
2022/04/20 05:00:45;;;;;;;;;;;;;;;;;;5033284;28;19905;-51
2022/04/20 05:03:20;;;;;;;;;;;;;;;;;;5033582;28;19963;-51
2022/04/20 05:05:45;;;;;;;;;;;;;;;;;;5034133;28;19976;-52
2022/04/20 05:08:11;;;;;;;;;;;;;;;;;;5030838;28;19944;-50
2022/04/20 05:10:39;;;;;;;;;;;;;;;;;;5033429;28;20277;-52
2022/04/20 05:13:06;;;;;;;;;;;;;;;;;;5033405;28;19909;-50
2022/04/20 05:15:31;;;;;;;;;;;;;;;;;;5027947;28;19910;-51
2022/04/20 05:17:57;;;;;;;;;;;;;;;;;;5030087;28;19917;-52
2022/04/20 05:20:22;;;;;;;;;;;;;;;;;;5017987;28;19920;-51
2022/04/20 05:22:47;;;;;;;;;;;;;;;;;;5013514;28;19917;-51
2022/04/20 05:25:13;;;;;;;;;;;;;;;;;;5013570;28;20349;-52
2022/04/20 05:27:38;;;;;;;;;;;;;;;;;;5012877;28;19909;-50
2022/04/20 05:30:06;;;;;;;;;;;;;;;;;;5013795;28;19935;-52
2022/04/20 05:32:32;;;;;;;;;;;;;;;;;;5012246;28;20270;-53
2022/04/20 05:34:57;;;;;;;;;;;;;;;;;;5012546;28;19909;-51
2022/04/20 05:42:52;;;;;;;;;;;;;;;;;;5024688;28;19918;-52
2022/04/20 05:45:17;;;;;;;;;;;;;;;;;;5045196;28;19921;-53
2022/04/20 05:47:47;;;;;;;;;;;;;;;;;;5047407;28;19913;-55
2022/04/20 05:50:12;;;;;;;;;;;;;;;;;;5032898;28;20258;-51
2022/04/20 05:52:37;;;;;;;;;;;;;;;;;;5032060;28;20266;-50
2022/04/20 05:55:03;;;;;;;;;;;;;;;;;;5032029;28;19932;-52
2022/04/20 05:57:28;;;;;;;;;;;;;;;;;;5026555;28;19905;-51
2022/04/20 05:59:53;;;;;;;;;;;;;;;;;;5017683;28;19956;-51
2022/04/20 06:02:20;;;;;;;;;;;;;;;;;;5032539;28;19905;-56
2022/04/20 06:04:45;;;;;;;;;;;;;;;;;;5031927;28;20273;-52
2022/04/20 06:07:30;;;;;;;;;;;;;;;;;;5025930;28;19917;-51
2022/04/20 06:10:29;;;;;;;;;;;;;;;;;;5008878;28;20265;-50
2022/04/20 06:12:58;;;;;;;;;;;;;;;;;;5025804;28;19916;-50
2022/04/20 06:15:35;;;;;;;;;;;;;;;;;;5033336;28;20372;-51
2022/04/20 06:18:07;;;;;;;;;;;;;;;;;;5033452;28;19910;-53
2022/04/20 06:20:32;;;;;;;;;;;;;;;;;;5031718;28;19964;-50
2022/04/20 06:23:22;;;;;;;;;;;;;;;;;;5008836;28;19952;-54
2022/04/20 06:26:18;;;;;;;;;;;;;;;;;;5010314;28;19988;-50
2022/04/20 06:29:07;;;;;;;;;;;;;;;;;;5012449;28;19920;-51
2022/04/20 06:31:51;;;;;;;;;;;;;;;;;;5041052;28;19917;-53
2022/04/20 06:34:32;;;;;;;;;;;;;;;;;;5015623;28;19909;-53
2022/04/20 06:37:12;;;;;;;;;;;;;;;;;;5016004;28;19916;-53
2022/04/20 06:39:40;;;;;;;;;;;;;;;;;;5048268;28;19921;-53
2022/04/20 06:42:27;;;;;;;;;;;;;;;;;;5023280;28;19956;-53
2022/04/20 06:45:25;;;;;;;;;;;;;;;;;;5015829;28;20024;-50
2022/04/20 06:48:16;;;;;;;;;;;;;;;;;;5015881;28;19913;-53
2022/04/20 06:51:05;;;;;;;;;;;;;;;;;;5017541;28;20306;-51
2022/04/20 06:59:33;;;;;;;;;;;;;;;;;;5015524;28;20007;-54
2022/04/20 07:02:02;;;;;;;;;;;;;;;;;;5017003;28;19910;-53
2022/04/20 07:04:52;;;;;;;;;;;;;;;;;;5015441;28;19952;-54
2022/04/20 07:07:38;;;;;;;;;;;;;;;;;;5016789;28;19917;-53
2022/04/20 07:10:06;;;;;;;;;;;;;;;;;;5016936;28;19960;-53
2022/04/20 07:12:39;;;;;;;;;;;;;;;;;;5016850;28;19985;-53
2022/04/20 07:15:04;;;;;;;;;;;;;;;;;;5048632;28;20004;-53
2022/04/20 07:17:30;;;;;;;;;;;;;;;;;;5047996;28;19909;-51
2022/04/20 07:20:10;;;;;;;;;;;;;;;;;;5048422;28;20353;-52
2022/04/20 07:22:59;;;;;;;;;;;;;;;;;;5032374;28;19909;-50
2022/04/20 07:25:29;;;;;;;;;;;;;;;;;;5031208;28;20008;-52
2022/04/20 07:28:16;;;;;;;;;;;;;;;;;;5048820;28;19920;-50
2022/04/20 07:30:52;;;;;;;;;;;;;;;;;;5034564;28;19909;-55
2022/04/20 07:33:36;;;;;;;;;;;;;;;;;;5015578;28;19916;-53
2022/04/20 07:36:10;;;;;;;;;;;;;;;;;;5030608;28;19913;-53
2022/04/20 07:38:54;;;;;;;;;;;;;;;;;;5016656;28;19916;-52
2022/04/20 07:41:39;;;;;;;;;;;;;;;;;;5015975;28;19973;-51
2022/04/20 07:44:16;;;;;;;;;;;;;;;;;;5014935;28;19918;-53
2022/04/20 07:46:49;;;;;;;;;;;;;;;;;;5014269;28;20295;-54
2022/04/20 07:52:15;;;;;;;;;;;;;;;;;;5048104;28;20381;-53
2022/04/20 07:54:53;;;;;;;;;;;;;;;;;;5015162;28;20338;-53
2022/04/20 07:57:57;;;;;;;;;;;;;;;;;;5033264;28;20382;-57
2022/04/20 08:00:51;;;;;;;;;;;;;;;;;;5014702;28;19992;-54
2022/04/20 08:03:37;;;;;;;;;;;;;;;;;;5015627;28;20242;-54
2022/04/20 08:06:04;;;;;;;;;;;;;;;;;;5013784;28;20012;-53
2022/04/20 08:08:32;;;;;;;;;;;;;;;;;;5013642;28;20247;-54
2022/04/20 08:10:59;;;;;;;;;;;;;;;;;;5014788;28;19918;-54
2022/04/20 08:16:16;;;;;;;;;;;;;;;;;;5047294;28;20372;-52
2022/04/20 08:19:10;;;;;;;;;;;;;;;;;;4979116;28;19910;-53
2022/04/20 08:21:51;;;;;;;;;;;;;;;;;;5013719;28;19914;-54
2022/04/20 08:24:17;;;;;;;;;;;;;;;;;;5014969;28;19922;-59
2022/04/20 08:26:42;;;;;;;;;;;;;;;;;;5014097;28;20004;-54
2022/04/20 08:29:09;;;;;;;;;;;;;;;;;;5012548;28;20211;-53
2022/04/20 08:31:35;;;;;;;;;;;;;;;;;;5015670;28;19916;-54
2022/04/20 08:34:00;;;;;;;;;;;;;;;;;;5019656;28;19909;-54
2022/04/20 08:36:25;;;;;;;;;;;;;;;;;;5034539;28;19995;-56
2022/04/20 08:38:50;;;;;;;;;;;;;;;;;;5032102;28;19905;-53
2022/04/20 08:41:16;;;;;;;;;;;;;;;;;;5034456;28;20004;-55
2022/04/20 08:43:41;;;;;;;;;;;;;;;;;;5033537;28;19959;-54
2022/04/20 08:46:07;;;;;;;;;;;;;;;;;;5032878;28;19925;-54
2022/04/20 08:48:32;;;;;;;;;;;;;;;;;;5034725;28;20322;-53
2022/04/20 08:50:57;;;;;;;;;;;;;;;;;;5034718;28;19959;-54
2022/04/20 08:53:22;;;;;;;;;;;;;;;;;;5034439;28;19941;-54
2022/04/20 08:55:48;;;;;;;;;;;;;;;;;;5034676;28;19916;-54
2022/04/20 08:58:13;;;;;;;;;;;;;;;;;;5033969;28;19909;-53
2022/04/20 09:00:38;;;;;;;;;;;;;;;;;;5034175;28;19917;-53
2022/04/20 09:03:03;;;;;;;;;;;;;;;;;;5034387;28;20003;-54
2022/04/20 09:05:29;;;;;;;;;;;;;;;;;;5034189;28;20317;-54
2022/04/20 09:07:54;;;;;;;;;;;;;;;;;;5034360;28;20313;-54
2022/04/20 09:10:20;;;;;;;;;;;;;;;;;;5032943;28;19905;-54
2022/04/20 09:12:45;;;;;;;;;;;;;;;;;;5033480;28;19916;-54
2022/04/20 09:15:10;;;;;;;;;;;;;;;;;;5035023;28;19948;-54
2022/04/20 09:17:37;;;;;;;;;;;;;;;;;;5034024;28;19909;-53
2022/04/20 09:20:02;;;;;;;;;;;;;;;;;;5033548;28;19932;-54
2022/04/20 09:22:29;;;;;;;;;;;;;;;;;;5032777;28;20341;-55
2022/04/20 09:24:57;;;;;;;;;;;;;;;;;;5031431;28;20008;-53
2022/04/20 09:27:22;;;;;;;;;;;;;;;;;;5033012;28;20327;-54
2022/04/20 09:29:47;;;;;;;;;;;;;;;;;;5033503;28;20370;-55
2022/04/20 09:32:15;;;;;;;;;;;;;;;;;;5033457;28;20207;-55
2022/04/20 09:34:56;;;;;;;;;;;;;;;;;;5033283;28;19913;-54
2022/04/20 09:37:22;;;;;;;;;;;;;;;;;;5033437;28;19948;-55
2022/04/20 09:39:47;;;;;;;;;;;;;;;;;;5034296;28;19952;-54
2022/04/20 09:42:12;;;;;;;;;;;;;;;;;;5033523;28;19999;-53
2022/04/20 09:44:41;;;;;;;;;;;;;;;;;;5031161;28;19917;-55
2022/04/20 09:49:50;;;;;;;;;;;;;;;;;;5033293;28;19909;-54
2022/04/20 09:52:16;;;;;;;;;;;;;;;;;;5033856;28;19909;-57
2022/04/20 09:54:42;;;;;;;;;;;;;;;;;;5031818;28;20296;-53
2022/04/20 09:57:07;;;;;;;;;;;;;;;;;;5033338;28;20434;-54
2022/04/20 09:59:32;;;;;;;;;;;;;;;;;;5033846;28;19909;-54
2022/04/20 10:01:57;;;;;;;;;;;;;;;;;;5017596;28;19916;-53
2022/04/20 10:04:23;;;;;;;;;;;;;;;;;;5012713;28;19924;-54
2022/04/20 10:06:48;;;;;;;;;;;;;;;;;;5013251;28;19909;-56
2022/04/20 10:09:13;;;;;;;;;;;;;;;;;;5015707;28;19916;-53
2022/04/20 10:11:38;;;;;;;;;;;;;;;;;;5017803;28;20372;-54
2022/04/20 10:16:48;;;;;;;;;;;;;;;;;;5017250;28;19920;-53
2022/04/20 10:19:13;;;;;;;;;;;;;;;;;;5017494;28;20000;-56
2022/04/20 10:21:38;;;;;;;;;;;;;;;;;;5017699;28;20339;-54
2022/04/20 10:24:05;;;;;;;;;;;;;;;;;;5029763;28;20007;-54
2022/04/20 10:26:31;;;;;;;;;;;;;;;;;;5037405;28;19909;-55
2022/04/20 10:28:56;;;;;;;;;;;;;;;;;;5037042;28;19974;-53
2022/04/20 10:31:21;;;;;;;;;;;;;;;;;;5036940;28;19909;-55
2022/04/20 10:33:52;;;;;;;;;;;;;;;;;;5036325;28;19910;-53
2022/04/20 10:36:41;;;;;;;;;;;;;;;;;;5036664;28;19908;-52
2022/04/20 10:39:12;;;;;;;;;;;;;;;;;;5033312;28;19917;-54
2022/04/20 10:41:43;;;;;;;;;;;;;;;;;;5033758;28;19913;-55
2022/04/20 10:44:10;;;;;;;;;;;;;;;;;;5035593;28;19909;-55
2022/04/20 10:46:36;;;;;;;;;;;;;;;;;;5037157;28;19928;-54
2022/04/20 10:49:02;;;;;;;;;;;;;;;;;;5036541;28;20350;-55
2022/04/20 10:51:29;;;;;;;;;;;;;;;;;;5032648;28;20342;-54
2022/04/20 10:53:55;;;;;;;;;;;;;;;;;;5036547;28;19913;-54
2022/04/20 10:56:21;;;;;;;;;;;;;;;;;;5036006;28;19940;-55
2022/04/20 10:58:46;;;;;;;;;;;;;;;;;;5036085;28;19909;-55
2022/04/20 11:01:11;;;;;;;;;;;;;;;;;;5035573;28;19916;-54
2022/04/20 11:03:36;;;;;;;;;;;;;;;;;;5036765;28;20398;-55
2022/04/20 11:06:01;;;;;;;;;;;;;;;;;;5036226;28;19916;-55
2022/04/20 11:08:27;;;;;;;;;;;;;;;;;;5036156;28;19920;-54
2022/04/20 11:18:38;;;;;;;;;;;;;;;;;;5036139;28;19909;-54
2022/04/20 11:19:09;;;;;;;;;;;;;;;;;;5048132;28;19909;-54
2022/04/20 11:21:35;;;;;;;;;;;;;;;;;;5036622;28;20301;-53
2022/04/20 11:24:01;;;;;;;;;;;;;;;;;;5035644;28;19996;-57
2022/04/20 11:26:27;;;;;;;;;;;;;;;;;;5036339;28;19916;-55
2022/04/20 11:28:53;;;;;;;;;;;;;;;;;;5036223;28;20358;-56
2022/04/20 11:31:18;;;;;;;;;;;;;;;;;;5035834;28;19940;-56
2022/04/20 11:33:43;;;;;;;;;;;;;;;;;;5036163;28;19912;-58
2022/04/20 11:36:08;;;;;;;;;;;;;;;;;;5034445;28;19913;-57
2022/04/20 11:38:33;;;;;;;;;;;;;;;;;;5035908;28;19916;-57
2022/04/20 11:40:59;;;;;;;;;;;;;;;;;;5036013;28;19998;-58
2022/04/20 11:43:24;;;;;;;;;;;;;;;;;;5035324;28;19960;-57
2022/04/20 11:45:50;;;;;;;;;;;;;;;;;;5035609;28;19917;-57
2022/04/20 11:48:16;;;;;;;;;;;;;;;;;;5033841;28;19947;-57
2022/04/20 11:50:43;;;;;;;;;;;;;;;;;;5034182;28;20368;-57
2022/04/20 11:53:08;;;;;;;;;;;;;;;;;;5034594;28;19909;-57
2022/04/20 11:55:57;;;;;;;;;;;;;;;;;;5034281;28;19905;-57
2022/04/20 11:58:22;;;;;;;;;;;;;;;;;;5035983;28;20075;-56
2022/04/20 12:00:48;;;;;;;;;;;;;;;;;;5035952;28;19913;-56
2022/04/20 12:03:13;;;;;;;;;;;;;;;;;;5033728;28;19912;-58
2022/04/20 12:05:38;;;;;;;;;;;;;;;;;;5034074;28;19917;-57
2022/04/20 12:08:04;;;;;;;;;;;;;;;;;;5034867;28;19968;-56
2022/04/20 12:10:29;;;;;;;;;;;;;;;;;;5021663;28;19909;-57
2022/04/20 12:12:54;;;;;;;;;;;;;;;;;;5015487;28;19905;-57
2022/04/20 12:15:20;;;;;;;;;;;;;;;;;;5013927;28;19996;-58
2022/04/20 12:17:46;;;;;;;;;;;;;;;;;;5015602;28;19910;-58
2022/04/20 12:20:12;;;;;;;;;;;;;;;;;;5028558;28;20007;-59
2022/04/20 12:22:39;;;;;;;;;;;;;;;;;;5034314;28;19916;-58
2022/04/20 12:25:04;;;;;;;;;;;;;;;;;;5034033;28;19917;-58
2022/04/20 12:27:29;;;;;;;;;;;;;;;;;;5034621;28;19909;-59
2022/04/20 12:29:54;;;;;;;;;;;;;;;;;;5034422;28;19909;-58
2022/04/20 12:32:20;;;;;;;;;;;;;;;;;;5032604;28;19936;-59
2022/04/20 12:34:46;;;;;;;;;;;;;;;;;;5052077;28;19913;-59
2022/04/20 12:37:12;;;;;;;;;;;;;;;;;;5055217;28;19908;-59
2022/04/20 12:39:38;;;;;;;;;;;;;;;;;;5050540;28;19912;-58
2022/04/20 12:42:03;;;;;;;;;;;;;;;;;;5015373;28;19917;-59
2022/04/20 12:44:31;;;;;;;;;;;;;;;;;;5014906;28;19917;-59
2022/04/20 12:46:57;;;;;;;;;;;;;;;;;;5046598;28;19909;-59
2022/04/20 12:49:22;;;;;;;;;;;;;;;;;;5015045;28;19913;-58
2022/04/20 12:51:48;;;;;;;;;;;;;;;;;;5058703;28;20272;-59
2022/04/20 12:54:13;;;;;;;;;;;;;;;;;;5034722;28;19928;-59
2022/04/20 13:02:22;;;;;;;;;;;;;;;;;;5029898;28;19917;-57
2022/04/20 13:04:48;;;;;;;;;;;;;;;;;;5028174;28;19917;-57
2022/04/20 13:07:13;;;;;;;;;;;;;;;;;;5034064;28;19909;-60
2022/04/20 13:09:38;;;;;;;;;;;;;;;;;;5033518;28;19909;-59
2022/04/20 13:12:04;;;;;;;;;;;;;;;;;;5033262;28;20297;-57
2022/04/20 13:14:30;;;;;;;;;;;;;;;;;;5034633;28;19967;-57
2022/04/20 13:16:56;;;;;;;;;;;;;;;;;;5033881;28;19909;-57
2022/04/20 13:19:21;;;;;;;;;;;;;;;;;;5033878;28;19909;-57
2022/04/20 13:21:46;;;;;;;;;;;;;;;;;;5034167;28;20004;-57
2022/04/20 13:24:11;;;;;;;;;;;;;;;;;;5033810;28;20100;-57
2022/04/20 13:29:22;;;;;;;;;;;;;;;;;;5034208;28;19913;-58
2022/04/20 13:31:47;;;;;;;;;;;;;;;;;;5033501;28;19995;-58
2022/04/20 13:34:13;;;;;;;;;;;;;;;;;;5034259;28;20008;-57
2022/04/20 13:36:38;;;;;;;;;;;;;;;;;;5033906;28;19913;-58
2022/04/20 13:39:03;;;;;;;;;;;;;;;;;;5034369;28;19909;-58
2022/04/20 13:41:28;;;;;;;;;;;;;;;;;;5034150;28;19909;-59
2022/04/20 13:43:54;;;;;;;;;;;;;;;;;;5032558;28;19909;-59
2022/04/20 13:46:19;;;;;;;;;;;;;;;;;;5034094;28;20358;-58
2022/04/20 13:48:44;;;;;;;;;;;;;;;;;;5033952;28;20004;-59
2022/04/20 13:51:09;;;;;;;;;;;;;;;;;;5033581;28;19940;-57
2022/04/20 13:53:35;;;;;;;;;;;;;;;;;;5027911;28;19909;-59
2022/04/20 13:56:03;;;;;;;;;;;;;;;;;;5013745;28;19988;-57
2022/04/20 13:58:29;;;;;;;;;;;;;;;;;;5013852;28;19913;-59
2022/04/20 14:00:55;;;;;;;;;;;;;;;;;;5012429;28;19906;-59
2022/04/20 14:03:20;;;;;;;;;;;;;;;;;;5013723;28;19932;-59
2022/04/20 14:05:45;;;;;;;;;;;;;;;;;;5014295;28;20376;-59
2022/04/20 14:08:10;;;;;;;;;;;;;;;;;;5028805;28;19920;-59
2022/04/20 14:10:37;;;;;;;;;;;;;;;;;;5027458;28;20392;-59
2022/04/20 14:13:03;;;;;;;;;;;;;;;;;;5030365;28;19909;-57
2022/04/20 14:15:28;;;;;;;;;;;;;;;;;;5033669;28;19920;-58
2022/04/20 14:17:55;;;;;;;;;;;;;;;;;;5033757;28;20008;-57
2022/04/20 14:20:20;;;;;;;;;;;;;;;;;;5033776;28;20247;-58
2022/04/20 14:22:45;;;;;;;;;;;;;;;;;;5013070;28;20004;-57
2022/04/20 14:33:22;;;;;;;;;;;;;;;;;;5013356;28;19913;-58
2022/04/20 14:35:48;;;;;;;;;;;;;;;;;;5011209;28;19961;-58
2022/04/20 14:38:13;;;;;;;;;;;;;;;;;;5022131;28;19913;-59
2022/04/20 14:40:38;;;;;;;;;;;;;;;;;;5031588;28;19915;-58
2022/04/20 14:43:04;;;;;;;;;;;;;;;;;;5032332;28;20309;-58
2022/04/20 14:45:29;;;;;;;;;;;;;;;;;;5031947;28;19987;-58
2022/04/20 14:48:00;;;;;;;;;;;;;;;;;;5033092;28;19962;-58
2022/04/20 14:50:25;;;;;;;;;;;;;;;;;;5033079;28;20246;-63
2022/04/20 14:52:50;;;;;;;;;;;;;;;;;;5033094;28;19909;-58
2022/04/20 14:55:16;;;;;;;;;;;;;;;;;;5035846;28;19967;-57
2022/04/20 14:57:41;;;;;;;;;;;;;;;;;;5036539;28;19998;-58
2022/04/20 15:00:06;;;;;;;;;;;;;;;;;;5034226;28;19912;-57
2022/04/20 15:02:32;;;;;;;;;;;;;;;;;;5037606;28;19913;-58
2022/04/20 15:04:57;;;;;;;;;;;;;;;;;;5036557;28;20269;-58
2022/04/20 15:07:22;;;;;;;;;;;;;;;;;;5036768;28;20328;-58
2022/04/20 15:09:47;;;;;;;;;;;;;;;;;;5035308;28;20342;-58
2022/04/20 15:12:13;;;;;;;;;;;;;;;;;;5036912;28;20325;-58
2022/04/20 15:14:39;;;;;;;;;;;;;;;;;;5030543;28;19921;-58
2022/04/20 15:17:04;;;;;;;;;;;;;;;;;;5016890;28;19992;-58
2022/04/20 15:19:31;;;;;;;;;;;;;;;;;;5014169;28;19949;-58
2022/04/20 15:21:56;;;;;;;;;;;;;;;;;;5054102;28;19913;-58
2022/04/20 15:24:21;;;;;;;;;;;;;;;;;;5035334;28;20008;-58
2022/04/20 15:26:46;;;;;;;;;;;;;;;;;;5035948;28;19995;-58
2022/04/20 15:29:13;;;;;;;;;;;;;;;;;;5036131;28;20357;-58
2022/04/20 15:31:38;;;;;;;;;;;;;;;;;;5036608;28;19909;-58
2022/04/20 15:34:03;;;;;;;;;;;;;;;;;;5035847;28;19909;-58
2022/04/20 15:36:30;;;;;;;;;;;;;;;;;;5036471;28;20312;-58
2022/04/20 15:38:56;;;;;;;;;;;;;;;;;;5036301;28;19953;-57
2022/04/20 15:41:22;;;;;;;;;;;;;;;;;;5035733;28;19909;-57
2022/04/20 15:43:47;;;;;;;;;;;;;;;;;;5034904;28;19967;-57
2022/04/20 15:46:13;;;;;;;;;;;;;;;;;;5034263;28;19963;-59
2022/04/20 15:48:38;;;;;;;;;;;;;;;;;;5036190;28;19913;-58
2022/04/20 15:51:04;;;;;;;;;;;;;;;;;;5033330;28;20361;-58
2022/04/20 15:53:29;;;;;;;;;;;;;;;;;;5035683;28;19913;-59
2022/04/20 16:01:22;;;;;;;;;;;;;;;;;;5035330;28;19909;-59
2022/04/20 16:03:47;;;;;;;;;;;;;;;;;;5036588;28;19909;-58
2022/04/20 16:06:13;;;;;;;;;;;;;;;;;;5033137;28;19939;-58
2022/04/20 16:08:38;;;;;;;;;;;;;;;;;;5034758;28;20265;-59
2022/04/20 16:11:03;;;;;;;;;;;;;;;;;;5018972;28;20278;-59
2022/04/20 16:13:29;;;;;;;;;;;;;;;;;;5047198;28;20359;-59
2022/04/20 16:15:54;;;;;;;;;;;;;;;;;;5015980;28;19977;-57
2022/04/20 16:18:19;;;;;;;;;;;;;;;;;;5013480;28;19909;-58
2022/04/20 16:20:45;;;;;;;;;;;;;;;;;;5035615;28;19913;-57
2022/04/20 16:23:10;;;;;;;;;;;;;;;;;;5033799;28;19909;-58
2022/04/20 16:25:35;;;;;;;;;;;;;;;;;;5035082;28;19921;-57
2022/04/20 16:28:04;;;;;;;;;;;;;;;;;;5034028;28;19909;-57
2022/04/20 16:30:30;;;;;;;;;;;;;;;;;;5035065;28;19913;-57
2022/04/20 16:32:55;;;;;;;;;;;;;;;;;;5035682;28;19909;-58
2022/04/20 16:35:20;;;;;;;;;;;;;;;;;;5033441;28;19959;-57
2022/04/20 16:37:46;;;;;;;;;;;;;;;;;;5034861;28;19905;-58
2022/04/20 16:40:11;;;;;;;;;;;;;;;;;;5034400;28;19932;-58
2022/04/20 16:42:37;;;;;;;;;;;;;;;;;;5034862;28;19963;-58
2022/04/20 16:45:02;;;;;;;;;;;;;;;;;;5035048;28;20015;-58
2022/04/20 16:47:27;;;;;;;;;;;;;;;;;;5034660;28;19905;-58
2022/04/20 16:49:52;;;;;;;;;;;;;;;;;;5022191;28;19910;-58
2022/04/20 16:52:18;;;;;;;;;;;;;;;;;;5015573;28;19909;-58
2022/04/20 16:54:43;;;;;;;;;;;;;;;;;;5015319;28;19917;-58
2022/04/20 16:57:09;;;;;;;;;;;;;;;;;;5012492;28;19913;-57
2022/04/20 16:59:34;;;;;;;;;;;;;;;;;;5024888;28;20295;-57
2022/04/20 17:01:59;;;;;;;;;;;;;;;;;;5034631;28;19909;-58
2022/04/20 17:04:25;;;;;;;;;;;;;;;;;;5013173;28;19913;-57
2022/04/20 17:06:50;;;;;;;;;;;;;;;;;;5018583;28;20369;-58
2022/04/20 17:09:15;;;;;;;;;;;;;;;;;;5031340;28;19913;-58
2022/04/20 17:11:40;;;;;;;;;;;;;;;;;;5046264;28;19913;-57
2022/04/20 17:14:05;;;;;;;;;;;;;;;;;;5014327;28;19913;-56
2022/04/20 17:16:31;;;;;;;;;;;;;;;;;;5015206;28;19909;-56
2022/04/20 17:18:56;;;;;;;;;;;;;;;;;;5013155;28;20011;-56
2022/04/20 17:26:49;;;;;;;;;;;;;;;;;;5014291;28;19925;-56
2022/04/20 17:29:16;;;;;;;;;;;;;;;;;;5012452;28;20235;-56
2022/04/20 17:31:43;;;;;;;;;;;;;;;;;;5013945;28;19917;-56
2022/04/20 17:34:08;;;;;;;;;;;;;;;;;;5012653;28;20350;-56
2022/04/20 17:36:37;;;;;;;;;;;;;;;;;;5013303;28;19910;-57
2022/04/20 17:39:02;;;;;;;;;;;;;;;;;;5014455;28;19963;-57
2022/04/20 17:41:28;;;;;;;;;;;;;;;;;;5014129;28;19906;-57
2022/04/20 17:43:53;;;;;;;;;;;;;;;;;;5013959;28;19943;-57
2022/04/20 17:46:19;;;;;;;;;;;;;;;;;;5030181;28;19964;-56
2022/04/20 17:48:44;;;;;;;;;;;;;;;;;;5034036;28;19909;-57
2022/04/20 17:51:09;;;;;;;;;;;;;;;;;;5032056;28;19910;-55
2022/04/20 17:53:34;;;;;;;;;;;;;;;;;;5033976;28;19956;-55
2022/04/20 17:56:00;;;;;;;;;;;;;;;;;;5033316;28;20313;-57
2022/04/20 17:58:25;;;;;;;;;;;;;;;;;;5033588;28;19912;-57